Time;durP1;ratioP1;P1;durP2;ratioP2;P2;SDS_P1;SDS_P2;PMS_P1;PMS_P2;Temp;Humidity;BMP_temperature;BMP_pressure;BME280_temperature;BME280_humidity;BME280_pressure;Samples;Min_cycle;Max_cycle;Signal;HPM_P1;HPM_P2
2021/12/16 00:09:36;;;;;;;12.73;6.97;;;5.00;91.80;;;;;;5091977;28;20181;-75
2021/12/16 00:31:30;;;;;;;18.73;9.88;;;5.20;91.90;;;;;;5092316;28;20193;-75
2021/12/16 00:34:02;;;;;;;17.58;10.50;;;5.10;91.70;;;;;;5091821;28;20228;-75
2021/12/16 00:36:32;;;;;;;16.90;8.63;;;5.00;92.10;;;;;;5091976;28;20200;-74
2021/12/16 00:39:00;;;;;;;13.88;8.05;;;5.00;92.20;;;;;;5092364;28;20326;-74
2021/12/16 00:41:28;;;;;;;13.70;7.85;;;4.80;92.30;;;;;;5092085;28;20192;-75
2021/12/16 00:44:02;;;;;;;15.45;9.02;;;4.80;92.70;;;;;;5092341;28;20243;-74
2021/12/16 00:49:31;;;;;;;15.63;9.20;;;4.80;93.20;;;;;;5091962;28;20185;-75
2021/12/16 00:54:53;;;;;;;13.32;7.47;;;4.70;93.00;;;;;;5062456;28;20217;-75
2021/12/16 00:57:22;;;;;;;12.60;7.20;;;4.60;92.90;;;;;;5072149;28;20615;-74
2021/12/16 00:59:50;;;;;;;15.90;8.65;;;4.60;93.40;;;;;;5091177;28;20267;-75
2021/12/16 01:02:36;;;;;;;16.42;8.90;;;4.50;93.30;;;;;;5091917;28;20212;-75
2021/12/16 01:05:41;;;;;;;18.52;8.52;;;4.60;93.30;;;;;;5072051;28;20666;-74
2021/12/16 01:36:08;;;;;;;13.77;6.50;;;4.10;95.00;;;;;;5095623;28;20235;-74
2021/12/16 01:47:24;;;;;;;13.18;7.55;;;3.90;95.40;;;;;;5013361;28;20227;-74
2021/12/16 01:50:00;;;;;;;12.70;6.90;;;4.00;95.30;;;;;;5058624;28;20187;-74
2021/12/16 01:55:22;;;;;;;12.98;8.15;;;4.20;95.20;;;;;;5094846;28;20239;-75
2021/12/16 01:57:54;;;;;;;14.27;7.72;;;4.30;94.60;;;;;;5095537;28;20553;-75
2021/12/16 02:00:31;;;;;;;13.65;7.55;;;4.30;94.20;;;;;;5095024;28;20189;-74
2021/12/16 02:03:04;;;;;;;12.10;6.57;;;4.40;94.10;;;;;;5094457;28;20221;-77
2021/12/16 02:05:53;;;;;;;13.20;7.50;;;4.40;93.70;;;;;;5074985;28;20186;-74
2021/12/16 02:08:24;;;;;;;13.80;7.50;;;4.40;93.70;;;;;;5077453;28;20201;-75
2021/12/16 02:11:16;;;;;;;20.65;8.95;;;4.30;93.50;;;;;;5074798;28;20210;-75
2021/12/16 02:27:44;;;;;;;16.98;8.32;;;4.30;93.40;;;;;;5094039;28;20339;-73
2021/12/16 02:33:16;;;;;;;13.65;7.32;;;4.50;93.30;;;;;;5093994;28;20192;-75
2021/12/16 02:35:46;;;;;;;12.23;6.93;;;4.50;92.60;;;;;;5094362;28;20224;-75
2021/12/16 02:38:17;;;;;;;15.63;7.22;;;4.50;92.80;;;;;;5093817;28;20186;-74
2021/12/16 02:40:47;;;;;;;10.13;7.30;;;4.50;93.00;;;;;;5094497;28;20276;-75
2021/12/16 02:43:49;;;;;;;10.45;6.97;;;4.50;92.80;;;;;;5093424;28;20190;-75
2021/12/16 02:48:56;;;;;;;12.75;6.53;;;4.50;92.90;;;;;;5093995;28;20189;-74
2021/12/16 02:51:26;;;;;;;8.93;5.30;;;4.60;92.90;;;;;;5094032;28;20194;-75
2021/12/16 02:53:57;;;;;;;12.70;7.20;;;4.50;92.40;;;;;;5093303;28;20214;-74
2021/12/16 02:56:25;;;;;;;9.95;6.78;;;4.50;92.90;;;;;;5093621;28;20182;-74
2021/12/16 02:58:55;;;;;;;11.82;6.00;;;4.40;92.50;;;;;;5093599;28;20671;-76
2021/12/16 03:01:28;;;;;;;10.88;6.35;;;4.30;92.50;;;;;;5093636;28;20201;-74
2021/12/16 03:03:57;;;;;;;11.18;6.15;;;4.40;92.50;;;;;;5093909;28;20193;-74
2021/12/16 03:06:25;;;;;;;10.27;6.53;;;4.40;92.50;;;;;;5093226;28;20189;-75
2021/12/16 03:08:53;;;;;;;14.15;6.20;;;4.40;92.80;;;;;;5093930;28;20196;-75
2021/12/16 03:11:25;;;;;;;11.05;5.72;;;4.30;93.10;;;;;;5093211;28;20289;-75
2021/12/16 03:17:03;;;;;;;9.82;6.28;;;4.30;93.30;;;;;;5077170;28;20182;-75
2021/12/16 03:19:42;;;;;;;9.13;5.40;;;4.20;93.20;;;;;;5093729;28;20326;-75
2021/12/16 03:22:20;;;;;;;9.63;6.35;;;4.30;93.40;;;;;;5093393;28;20517;-74
2021/12/16 03:25:09;;;;;;;10.13;6.43;;;4.40;93.40;;;;;;5093197;28;20693;-74
2021/12/16 03:28:16;;;;;;;12.23;6.70;;;4.40;93.30;;;;;;5092855;28;20224;-75
2021/12/16 03:36:29;;;;;;;11.15;5.65;;;4.50;93.10;;;;;;5110287;27;20595;-75
2021/12/16 03:39:02;;;;;;;11.13;6.25;;;4.50;92.40;;;;;;5110042;28;20245;-75
2021/12/16 03:41:30;;;;;;;10.32;7.57;;;4.50;92.50;;;;;;5110016;28;20546;-77
2021/12/16 03:44:00;;;;;;;11.60;6.55;;;4.50;92.30;;;;;;5110169;28;20250;-77
2021/12/16 03:46:29;;;;;;;9.85;6.05;;;4.40;92.50;;;;;;5109757;28;20189;-77
2021/12/16 03:49:05;;;;;;;11.20;6.38;;;4.40;92.60;;;;;;5110147;28;20196;-74
2021/12/16 03:51:37;;;;;;;10.63;6.10;;;4.40;93.10;;;;;;5109478;28;20184;-74
2021/12/16 03:54:08;;;;;;;14.63;6.60;;;4.40;93.30;;;;;;5109909;28;20193;-74
2021/12/16 03:56:35;;;;;;;10.82;6.40;;;4.40;93.10;;;;;;5109317;28;20219;-73
2021/12/16 03:59:03;;;;;;;10.27;6.82;;;4.40;93.10;;;;;;5109487;28;20224;-73
2021/12/16 04:01:31;;;;;;;14.05;6.82;;;4.50;93.20;;;;;;5109919;28;20189;-73
2021/12/16 04:03:59;;;;;;;15.40;6.70;;;4.40;92.50;;;;;;5109287;28;20220;-73
2021/12/16 04:06:29;;;;;;;11.48;6.35;;;4.40;93.10;;;;;;5110002;28;20196;-72
2021/12/16 04:08:58;;;;;;;8.60;4.93;;;4.30;93.30;;;;;;5109648;28;20193;-74
2021/12/16 04:11:32;;;;;;;11.52;7.03;;;4.40;93.80;;;;;;5110027;28;20246;-73
2021/12/16 04:14:02;;;;;;;13.75;8.85;;;4.40;93.40;;;;;;5109271;28;20184;-74
2021/12/16 04:16:32;;;;;;;10.57;6.53;;;4.40;93.10;;;;;;5109751;28;20648;-74
2021/12/16 04:19:01;;;;;;;15.93;7.47;;;4.40;93.00;;;;;;5109603;28;20185;-73
2021/12/16 04:21:29;;;;;;;13.23;6.70;;;4.30;93.10;;;;;;5109701;28;20204;-75
2021/12/16 04:23:59;;;;;;;9.50;6.60;;;4.40;92.70;;;;;;5109238;28;20582;-76
2021/12/16 04:26:28;;;;;;;10.57;6.97;;;4.30;93.00;;;;;;5109278;28;20193;-75
2021/12/16 04:28:56;;;;;;;10.05;6.70;;;4.30;93.30;;;;;;5109152;28;20246;-76
2021/12/16 04:31:24;;;;;;;9.95;5.68;;;4.30;93.10;;;;;;5109316;28;20194;-75
2021/12/16 04:33:52;;;;;;;8.80;4.90;;;4.30;93.40;;;;;;5108771;28;20181;-75
2021/12/16 04:36:19;;;;;;;8.00;5.47;;;4.40;93.60;;;;;;5109214;28;20221;-76
2021/12/16 04:38:48;;;;;;;11.30;5.75;;;4.40;93.50;;;;;;5109088;28;20292;-76
2021/12/16 04:41:19;;;;;;;10.82;6.47;;;4.40;93.20;;;;;;5109470;28;20197;-76
2021/12/16 04:43:50;;;;;;;9.55;5.72;;;4.30;93.10;;;;;;5108960;28;20264;-76
2021/12/16 04:46:19;;;;;;;9.63;5.53;;;4.40;92.90;;;;;;5103159;28;20198;-76
2021/12/16 04:48:49;;;;;;;12.02;6.90;;;4.30;92.80;;;;;;5094951;28;20201;-76
2021/12/16 04:51:17;;;;;;;9.75;5.60;;;4.30;93.10;;;;;;5095770;28;20197;-76
2021/12/16 04:53:44;;;;;;;12.27;6.13;;;4.30;92.90;;;;;;5095130;28;20186;-76
2021/12/16 04:56:13;;;;;;;10.35;5.80;;;4.40;93.00;;;;;;5095454;28;20217;-75
2021/12/16 04:58:44;;;;;;;11.23;8.15;;;4.40;92.60;;;;;;5095148;28;20262;-76
2021/12/16 05:01:11;;;;;;;12.02;6.68;;;4.40;92.80;;;;;;5095498;28;20193;-76
2021/12/16 05:03:38;;;;;;;10.48;5.75;;;4.40;92.90;;;;;;5094928;28;20186;-76
2021/12/16 05:06:09;;;;;;;11.82;6.32;;;4.40;93.00;;;;;;5095386;28;20193;-75
2021/12/16 05:08:37;;;;;;;13.07;7.28;;;4.40;93.10;;;;;;5095164;28;20231;-75
2021/12/16 05:11:05;;;;;;;10.50;7.35;;;4.50;93.00;;;;;;5095415;28;20193;-75
2021/12/16 05:13:34;;;;;;;11.10;6.10;;;4.50;92.80;;;;;;5094054;28;20186;-75
2021/12/16 05:16:05;;;;;;;14.05;7.90;;;4.50;93.10;;;;;;5094796;28;20221;-76
2021/12/16 05:18:35;;;;;;;12.55;8.13;;;4.50;92.70;;;;;;5094468;28;20177;-76
2021/12/16 05:21:06;;;;;;;15.85;8.50;;;4.50;92.70;;;;;;5094966;28;20192;-76
2021/12/16 05:26:20;;;;;;;20.85;11.30;;;4.50;92.70;;;;;;5094883;28;20200;-76
2021/12/16 05:28:51;;;;;;;14.70;8.15;;;4.60;92.80;;;;;;5095062;28;20221;-76
2021/12/16 05:31:20;;;;;;;14.45;7.13;;;4.60;92.90;;;;;;5094807;28;20178;-74
2021/12/16 05:33:48;;;;;;;15.45;6.97;;;4.60;92.70;;;;;;5094933;28;20525;-77
2021/12/16 05:36:15;;;;;;;13.90;7.68;;;4.60;92.50;;;;;;5094278;28;20278;-76
2021/12/16 05:38:43;;;;;;;9.68;7.03;;;4.60;92.50;;;;;;5094748;28;20201;-76
2021/12/16 05:41:13;;;;;;;10.30;7.00;;;4.60;92.60;;;;;;5094351;28;20186;-77
2021/12/16 05:43:41;;;;;;;10.73;7.00;;;4.60;92.50;;;;;;5094303;28;20234;-75
2021/12/16 05:46:10;;;;;;;9.55;7.45;;;4.60;92.60;;;;;;5093861;28;20264;-76
2021/12/16 05:48:42;;;;;;;12.45;7.40;;;4.60;92.60;;;;;;5094581;28;20189;-76
2021/12/16 05:51:12;;;;;;;9.95;7.55;;;4.60;92.50;;;;;;5094149;28;20182;-76
2021/12/16 05:53:40;;;;;;;13.20;7.70;;;4.60;92.30;;;;;;5094388;28;20197;-76
2021/12/16 05:56:08;;;;;;;14.50;7.70;;;4.50;92.60;;;;;;5093555;28;20240;-76
2021/12/16 05:58:36;;;;;;;17.20;9.20;;;4.60;92.30;;;;;;5092896;28;20182;-75
2021/12/16 06:01:06;;;;;;;11.55;8.05;;;4.60;92.40;;;;;;5094220;28;20196;-76
2021/12/16 06:03:34;;;;;;;14.02;8.88;;;4.50;92.70;;;;;;5093561;28;20709;-76
2021/12/16 06:06:03;;;;;;;16.40;9.82;;;4.50;92.00;;;;;;5094396;28;20272;-75
2021/12/16 06:08:30;;;;;;;9.82;7.18;;;4.50;92.50;;;;;;5093771;28;20185;-76
2021/12/16 06:13:49;;;;;;;12.55;6.95;;;4.50;93.10;;;;;;5093844;28;20549;-75
2021/12/16 06:27:20;;;;;;;10.80;6.22;;;4.60;92.50;;;;;;5093366;28;20201;-78
2021/12/16 06:29:51;;;;;;;11.40;6.88;;;4.50;92.60;;;;;;5073663;28;20533;-76
2021/12/16 06:32:19;;;;;;;10.40;6.25;;;4.50;92.90;;;;;;5073501;28;20533;-77
2021/12/16 06:34:47;;;;;;;12.60;5.85;;;4.50;92.80;;;;;;5073132;28;20230;-75
2021/12/16 06:37:16;;;;;;;12.68;6.22;;;4.50;92.80;;;;;;5092941;28;20197;-76
2021/12/16 06:39:43;;;;;;;10.10;6.70;;;4.40;92.60;;;;;;5093553;28;20224;-75
2021/12/16 06:42:11;;;;;;;12.15;6.60;;;4.40;92.70;;;;;;5093072;28;20189;-76
2021/12/16 06:44:43;;;;;;;9.40;5.75;;;4.40;93.10;;;;;;5093270;28;20190;-76
2021/12/16 06:47:16;;;;;;;12.80;7.70;;;4.50;92.70;;;;;;5093243;28;20217;-75
2021/12/16 06:49:45;;;;;;;14.07;6.68;;;4.40;92.80;;;;;;5093382;28;20205;-76
2021/12/16 06:52:15;;;;;;;10.57;7.00;;;4.40;93.00;;;;;;5092960;28;20186;-76
2021/12/16 06:54:59;;;;;;;13.02;8.40;;;4.30;93.10;;;;;;5092709;28;20190;-76
2021/12/16 06:57:37;;;;;;;15.82;11.40;;;4.30;92.90;;;;;;5093537;28;20304;-75
2021/12/16 07:00:10;;;;;;;17.42;9.13;;;4.30;92.80;;;;;;5092584;28;20230;-76
2021/12/16 07:02:48;;;;;;;11.98;7.38;;;4.40;93.20;;;;;;5093289;28;20198;-78
2021/12/16 07:05:19;;;;;;;12.23;7.05;;;4.40;93.30;;;;;;5092928;28;20186;-75
2021/12/16 07:07:47;;;;;;;11.40;6.45;;;4.50;93.20;;;;;;5093116;28;20201;-75
2021/12/16 07:10:17;;;;;;;10.68;5.95;;;4.50;93.10;;;;;;5090471;28;20706;-74
2021/12/16 07:12:48;;;;;;;12.35;6.80;;;4.50;92.80;;;;;;5092505;28;20208;-75
2021/12/16 07:15:21;;;;;;;10.38;6.95;;;4.50;92.70;;;;;;5091258;28;20278;-74
2021/12/16 07:17:49;;;;;;;8.98;6.63;;;4.60;93.10;;;;;;5092321;28;20185;-75
2021/12/16 07:20:20;;;;;;;14.43;8.43;;;4.60;92.70;;;;;;5092950;28;20193;-74
2021/12/16 07:22:47;;;;;;;9.43;5.75;;;4.60;92.70;;;;;;5089090;28;20653;-75
2021/12/16 07:25:17;;;;;;;13.02;7.10;;;4.60;92.60;;;;;;5072241;28;20267;-74
2021/12/16 07:27:44;;;;;;;16.60;9.20;;;4.60;92.50;;;;;;5089870;28;20221;-74
2021/12/16 07:30:14;;;;;;;13.70;8.80;;;4.60;92.30;;;;;;5089576;28;20277;-75
2021/12/16 07:32:42;;;;;;;12.60;6.38;;;4.60;92.40;;;;;;5076405;28;20200;-75
2021/12/16 07:35:12;;;;;;;11.25;6.43;;;4.60;92.20;;;;;;5078628;28;20221;-74
2021/12/16 07:37:39;;;;;;;11.13;5.57;;;4.60;92.40;;;;;;5089281;28;20185;-74
2021/12/16 07:40:08;;;;;;;10.02;5.78;;;4.50;92.40;;;;;;5089349;28;20193;-74
2021/12/16 07:42:45;;;;;;;6.97;5.13;;;4.50;92.40;;;;;;5090022;28;20591;-74
2021/12/16 07:45:14;;;;;;;9.68;5.35;;;4.50;92.30;;;;;;5090008;28;20189;-76
2021/12/16 07:47:41;;;;;;;11.27;6.45;;;4.50;92.30;;;;;;5089948;28;20635;-74
2021/12/16 07:50:09;;;;;;;10.43;5.85;;;4.40;92.50;;;;;;5086703;28;20231;-75
2021/12/16 07:52:40;;;;;;;11.27;6.35;;;4.50;92.60;;;;;;5089120;28;20185;-75
2021/12/16 07:55:08;;;;;;;11.13;5.72;;;4.50;92.60;;;;;;5086919;28;20191;-75
2021/12/16 07:57:37;;;;;;;9.25;6.20;;;4.50;92.70;;;;;;5090541;28;20279;-74
2021/12/16 08:00:07;;;;;;;14.18;9.57;;;4.50;92.70;;;;;;5089965;28;20276;-75
2021/12/16 08:02:34;;;;;;;13.48;6.88;;;4.60;92.40;;;;;;5089441;28;20178;-75
2021/12/16 08:05:02;;;;;;;15.75;8.50;;;4.60;92.70;;;;;;5089857;28;20234;-74
2021/12/16 08:07:29;;;;;;;12.73;7.15;;;4.60;92.60;;;;;;5090296;28;20199;-74
2021/12/16 08:09:56;;;;;;;16.58;6.22;;;4.60;92.20;;;;;;5085895;28;20185;-74
2021/12/16 08:12:23;;;;;;;11.07;6.30;;;4.60;92.10;;;;;;5088015;28;20276;-74
2021/12/16 08:14:52;;;;;;;10.10;5.50;;;4.60;92.20;;;;;;5089670;28;20288;-74
2021/12/16 08:17:19;;;;;;;9.45;6.50;;;4.60;92.40;;;;;;5089187;28;20213;-75
2021/12/16 08:19:47;;;;;;;9.40;5.20;;;4.70;92.50;;;;;;5089276;28;20185;-75
2021/12/16 08:22:16;;;;;;;10.68;5.70;;;4.70;92.40;;;;;;5090805;28;20228;-74
2021/12/16 08:24:44;;;;;;;8.15;5.28;;;4.70;92.10;;;;;;5094112;28;20699;-74
2021/12/16 08:27:11;;;;;;;11.20;6.20;;;4.80;92.10;;;;;;5093138;28;20798;-74
2021/12/16 08:29:46;;;;;;;12.68;5.53;;;4.70;92.10;;;;;;5086488;28;20200;-74
2021/12/16 08:32:15;;;;;;;9.93;6.30;;;4.80;92.20;;;;;;5093650;28;20304;-74
2021/12/16 08:34:45;;;;;;;10.35;5.15;;;4.90;92.30;;;;;;5089900;28;20293;-75
2021/12/16 08:37:14;;;;;;;11.75;6.05;;;4.80;91.80;;;;;;5092227;28;20243;-74
2021/12/16 08:39:41;;;;;;;10.32;5.80;;;4.80;91.90;;;;;;5093323;28;20189;-74
2021/12/16 08:42:10;;;;;;;9.57;6.13;;;4.90;91.80;;;;;;5093326;28;20194;-74
2021/12/16 08:44:38;;;;;;;9.02;5.50;;;4.90;91.50;;;;;;5093063;28;20209;-73
2021/12/16 08:47:08;;;;;;;13.27;7.78;;;4.90;91.70;;;;;;5088935;28;20302;-74
2021/12/16 08:49:37;;;;;;;14.73;10.68;;;4.90;91.70;;;;;;5088131;28;20619;-74
2021/12/16 08:52:07;;;;;;;10.80;6.85;;;5.00;91.90;;;;;;5088361;28;20265;-74
2021/12/16 08:54:35;;;;;;;8.70;5.28;;;5.00;91.80;;;;;;5088688;28;20220;-73
2021/12/16 08:57:04;;;;;;;10.55;6.22;;;5.00;91.50;;;;;;5090050;28;20225;-75
2021/12/16 08:59:32;;;;;;;10.98;7.03;;;5.00;91.60;;;;;;5091963;28;20192;-74
2021/12/16 09:02:01;;;;;;;10.35;5.95;;;5.00;91.70;;;;;;5091569;28;20643;-74
2021/12/16 09:04:34;;;;;;;11.45;6.55;;;5.00;91.80;;;;;;5092473;28;20199;-75
2021/12/16 09:07:07;;;;;;;11.35;5.97;;;5.00;91.60;;;;;;5091665;28;20281;-75
2021/12/16 09:09:35;;;;;;;10.30;5.75;;;5.10;91.40;;;;;;5088905;28;20235;-74
2021/12/16 09:12:11;;;;;;;9.15;5.00;;;5.20;91.40;;;;;;5092678;28;20201;-74
2021/12/16 09:14:40;;;;;;;10.63;6.07;;;5.20;91.30;;;;;;5091798;28;21046;-74
2021/12/16 09:17:11;;;;;;;8.00;5.50;;;5.30;91.00;;;;;;5092327;28;20691;-75
2021/12/16 09:19:43;;;;;;;11.07;5.72;;;5.30;90.90;;;;;;5090137;28;20193;-74
2021/12/16 09:22:15;;;;;;;8.23;5.18;;;5.40;90.60;;;;;;5078883;28;20195;-75
2021/12/16 09:24:42;;;;;;;9.80;6.00;;;5.30;90.40;;;;;;5074474;28;20206;-74
2021/12/16 09:27:10;;;;;;;18.63;8.30;;;5.30;90.70;;;;;;5074435;28;20194;-74
2021/12/16 09:29:37;;;;;;;9.52;6.20;;;5.40;91.00;;;;;;5082685;28;20201;-74
2021/12/16 09:32:10;;;;;;;10.07;6.60;;;5.40;91.10;;;;;;5089158;28;20251;-73
2021/12/16 09:34:39;;;;;;;9.70;6.18;;;5.50;90.90;;;;;;5092075;28;20233;-74
2021/12/16 09:37:07;;;;;;;9.80;6.18;;;5.50;90.70;;;;;;5091942;28;20741;-74
2021/12/16 09:39:37;;;;;;;8.02;5.82;;;5.50;90.70;;;;;;5091569;28;20190;-74
2021/12/16 09:42:07;;;;;;;12.35;5.50;;;5.50;90.60;;;;;;5092193;28;20296;-75
2021/12/16 09:44:36;;;;;;;7.50;5.15;;;5.60;90.60;;;;;;5092099;28;20221;-74
2021/12/16 09:47:06;;;;;;;14.10;6.75;;;5.60;90.60;;;;;;5091517;28;20586;-73
2021/12/16 09:49:33;;;;;;;13.65;8.90;;;5.60;90.80;;;;;;5090963;28;20185;-74
2021/12/16 09:52:01;;;;;;;13.38;6.95;;;5.60;90.10;;;;;;5091330;28;20639;-74
2021/12/16 09:54:31;;;;;;;11.98;6.45;;;5.70;89.00;;;;;;5091195;28;20200;-73
2021/12/16 09:57:04;;;;;;;8.25;5.28;;;5.70;90.00;;;;;;5078632;28;20298;-75
2021/12/16 09:59:34;;;;;;;7.57;5.50;;;5.60;90.00;;;;;;5073440;28;20653;-73
2021/12/16 10:02:04;;;;;;;10.05;6.15;;;5.60;90.30;;;;;;5088654;28;20238;-73
2021/12/16 10:04:32;;;;;;;13.02;6.93;;;5.70;89.60;;;;;;5090971;28;20189;-74
2021/12/16 10:07:02;;;;;;;7.82;4.78;;;5.70;90.10;;;;;;5091176;28;20211;-74
2021/12/16 10:09:29;;;;;;;11.32;7.75;;;5.70;90.20;;;;;;5090726;28;20193;-75
2021/12/16 10:12:00;;;;;;;9.02;5.47;;;5.90;90.70;;;;;;5087172;28;20217;-75
2021/12/16 10:14:48;;;;;;;8.15;5.50;;;6.00;90.00;;;;;;5091285;28;20205;-78
2021/12/16 10:17:24;;;;;;;10.07;5.78;;;6.10;90.10;;;;;;5091003;28;20279;-75
2021/12/16 10:19:52;;;;;;;10.52;7.10;;;6.10;89.10;;;;;;5090760;28;20189;-74
2021/12/16 10:22:23;;;;;;;7.22;5.82;;;6.10;88.70;;;;;;5087166;28;20194;-74
2021/12/16 10:24:52;;;;;;;7.70;4.85;;;6.20;88.80;;;;;;5090980;28;20664;-74
2021/12/16 10:27:23;;;;;;;7.90;4.80;;;6.30;89.60;;;;;;5091046;28;20185;-75
2021/12/16 10:29:55;;;;;;;10.15;5.85;;;6.40;89.60;;;;;;5086784;28;20186;-75
2021/12/16 10:32:39;;;;;;;7.57;5.10;;;6.60;89.20;;;;;;5090722;28;20212;-74
2021/12/16 10:35:11;;;;;;;7.07;5.28;;;6.60;87.40;;;;;;5090547;28;20225;-74
2021/12/16 10:37:42;;;;;;;9.00;4.97;;;6.60;87.90;;;;;;5090219;28;20304;-74
2021/12/16 10:40:33;;;;;;;10.32;5.55;;;6.70;85.80;;;;;;5072534;28;20187;-74
2021/12/16 10:43:03;;;;;;;6.28;4.00;;;6.70;85.90;;;;;;5072831;28;20541;-74
2021/12/16 10:45:35;;;;;;;6.65;5.07;;;6.70;86.00;;;;;;5072493;28;20281;-74
2021/12/16 10:48:18;;;;;;;5.75;4.22;;;6.90;87.30;;;;;;5088217;28;20243;-76
2021/12/16 10:51:18;;;;;;;8.43;5.88;;;7.20;88.60;;;;;;5088123;28;20190;-74
2021/12/16 10:54:03;;;;;;;6.13;4.18;;;7.70;88.80;;;;;;5090304;28;20675;-74
2021/12/16 10:56:35;;;;;;;9.52;5.60;;;8.40;87.30;;;;;;5090341;28;20292;-73
2021/12/16 10:59:06;;;;;;;8.38;4.78;;;8.80;82.00;;;;;;5090016;28;20666;-75
2021/12/16 11:01:55;;;;;;;6.70;4.88;;;8.80;76.30;;;;;;5086037;28;20673;-74
2021/12/16 11:04:26;;;;;;;6.97;5.03;;;8.70;76.70;;;;;;5089475;28;20589;-73
2021/12/16 11:06:57;;;;;;;8.93;4.68;;;9.30;79.40;;;;;;5090435;28;20233;-74
2021/12/16 11:09:42;;;;;;;7.05;3.88;;;10.40;80.10;;;;;;5090061;28;20197;-75
2021/12/16 11:12:29;;;;;;;5.82;3.80;;;11.10;76.20;;;;;;5088174;28;20640;-75
2021/12/16 11:15:06;;;;;;;6.53;3.83;;;11.70;72.80;;;;;;5089849;28;20190;-74
2021/12/16 11:17:39;;;;;;;4.32;2.78;;;12.20;70.80;;;;;;5089296;28;20228;-75
2021/12/16 11:20:24;;;;;;;5.75;3.30;;;12.40;66.10;;;;;;5089881;28;20197;-76
2021/12/16 11:22:58;;;;;;;5.07;3.00;;;12.30;63.20;;;;;;5089509;28;20212;-73
2021/12/16 11:25:29;;;;;;;4.53;3.10;;;12.20;63.00;;;;;;5090146;28;20220;-75
2021/12/16 11:28:11;;;;;;;6.65;3.47;;;11.90;59.60;;;;;;5088992;28;20190;-75
2021/12/16 11:30:45;;;;;;;5.45;3.10;;;11.40;58.60;;;;;;5088612;28;20190;-74
2021/12/16 11:33:42;;;;;;;5.20;3.25;;;11.00;60.10;;;;;;5089862;28;20568;-74
2021/12/16 11:36:13;;;;;;;4.22;3.17;;;10.60;62.30;;;;;;5082671;28;20216;-72
2021/12/16 11:38:44;;;;;;;6.03;3.55;;;10.30;62.90;;;;;;5073864;28;20603;-72
2021/12/16 11:41:24;;;;;;;5.53;3.83;;;10.00;63.30;;;;;;5080888;28;20223;-73
2021/12/16 11:44:13;;;;;;;4.80;3.63;;;9.70;66.40;;;;;;5089878;28;20272;-72
2021/12/16 11:46:43;;;;;;;4.78;3.60;;;9.40;68.40;;;;;;5089537;28;20198;-73
2021/12/16 11:49:15;;;;;;;4.38;3.05;;;9.30;68.90;;;;;;5089160;28;20185;-75
2021/12/16 11:51:45;;;;;;;4.57;3.22;;;9.20;69.50;;;;;;5086217;28;20338;-75
2021/12/16 11:54:21;;;;;;;4.90;3.30;;;9.10;69.30;;;;;;5089757;28;20655;-74
2021/12/16 11:57:04;;;;;;;3.58;2.50;;;9.30;70.60;;;;;;5087440;28;20315;-73
2021/12/16 11:59:35;;;;;;;4.72;2.83;;;9.50;68.90;;;;;;5093720;28;20225;-74
2021/12/16 12:02:04;;;;;;;3.60;2.65;;;9.60;68.30;;;;;;5090072;28;20650;-75
2021/12/16 12:04:35;;;;;;;4.28;3.15;;;9.40;65.90;;;;;;5093924;28;20239;-74
2021/12/16 12:07:11;;;;;;;3.60;2.80;;;9.20;67.10;;;;;;5084960;28;20228;-73
2021/12/16 12:09:42;;;;;;;3.53;2.67;;;9.00;67.10;;;;;;5090634;28;20198;-74
2021/12/16 12:12:11;;;;;;;2.83;2.15;;;8.90;67.50;;;;;;5093920;28;20285;-74
2021/12/16 12:14:45;;;;;;;3.45;2.63;;;8.70;67.80;;;;;;5079855;28;20281;-74
2021/12/16 12:17:19;;;;;;;5.32;2.40;;;8.60;68.30;;;;;;5077913;28;20218;-74
2021/12/16 12:19:52;;;;;;;3.50;2.28;;;8.50;68.20;;;;;;5073852;28;20597;-76
2021/12/16 12:22:26;;;;;;;4.38;2.55;;;8.40;68.00;;;;;;5092309;28;20638;-74
2021/12/16 12:24:54;;;;;;;5.28;3.38;;;8.30;69.60;;;;;;5083643;28;20606;-73
2021/12/16 12:27:25;;;;;;;3.80;2.70;;;8.20;70.90;;;;;;5093236;28;20193;-74
2021/12/16 12:29:54;;;;;;;4.13;3.00;;;8.10;71.60;;;;;;5089907;28;20575;-74
2021/12/16 12:32:24;;;;;;;3.33;2.80;;;8.10;71.60;;;;;;5074979;28;20190;-74
2021/12/16 12:34:57;;;;;;;4.60;2.80;;;8.00;72.20;;;;;;5080554;28;20210;-75
2021/12/16 12:37:27;;;;;;;3.95;2.85;;;8.00;72.50;;;;;;5074859;28;20218;-72
2021/12/16 12:40:01;;;;;;;4.05;3.20;;;8.00;72.90;;;;;;5075063;28;20190;-72
2021/12/16 12:42:29;;;;;;;4.03;2.85;;;7.90;72.60;;;;;;5091946;28;20308;-73
2021/12/16 12:44:57;;;;;;;3.70;2.80;;;7.90;72.60;;;;;;5091213;28;20660;-72
2021/12/16 12:47:34;;;;;;;3.25;2.40;;;7.90;73.00;;;;;;5092414;28;20247;-73
2021/12/16 12:50:17;;;;;;;3.60;2.80;;;7.90;72.80;;;;;;5092982;28;20193;-72
2021/12/16 12:52:46;;;;;;;4.25;3.20;;;7.80;72.90;;;;;;5089454;28;20205;-73
2021/12/16 12:55:23;;;;;;;3.08;2.08;;;7.80;73.50;;;;;;5080612;28;20200;-72
2021/12/16 12:58:00;;;;;;;4.45;3.28;;;7.80;72.80;;;;;;5088722;28;20217;-72
2021/12/16 13:00:33;;;;;;;4.20;2.10;;;8.00;73.30;;;;;;5092361;28;20188;-71
2021/12/16 13:03:06;;;;;;;4.05;2.63;;;8.10;74.20;;;;;;5079641;28;20552;-73
2021/12/16 13:05:36;;;;;;;3.80;2.53;;;8.30;73.70;;;;;;5090717;28;20189;-73
2021/12/16 13:08:07;;;;;;;3.90;2.75;;;8.30;72.90;;;;;;5092191;28;20214;-73
2021/12/16 13:10:43;;;;;;;4.03;3.00;;;8.40;72.80;;;;;;5090206;28;20192;-73
2021/12/16 13:13:29;;;;;;;3.30;2.58;;;8.40;73.00;;;;;;5092670;28;20200;-72
2021/12/16 13:16:17;;;;;;;3.70;2.60;;;8.50;72.50;;;;;;5091828;28;20185;-72
2021/12/16 13:25:00;;;;;;;2.90;2.20;;;8.60;71.20;;;;;;5090431;28;20196;-72
2021/12/16 13:27:43;;;;;;;4.28;2.30;;;8.50;70.70;;;;;;5087197;28;20189;-72
2021/12/16 13:30:20;;;;;;;6.60;2.92;;;8.60;70.90;;;;;;5088482;28;20189;-72
2021/12/16 13:33:20;;;;;;;3.10;2.30;;;8.60;70.40;;;;;;5092269;28;20227;-73
2021/12/16 13:36:02;;;;;;;5.40;3.15;;;8.60;70.70;;;;;;5091103;28;20217;-74
2021/12/16 13:38:40;;;;;;;4.03;2.95;;;8.70;70.70;;;;;;5092003;28;20217;-73
2021/12/16 13:41:09;;;;;;;4.38;3.25;;;8.60;70.50;;;;;;5091421;28;20193;-72
2021/12/16 13:43:54;;;;;;;2.97;1.88;;;8.60;69.60;;;;;;5091973;28;20625;-72
2021/12/16 13:46:38;;;;;;;3.97;1.85;;;8.50;70.30;;;;;;5089036;28;20243;-72
2021/12/16 13:58:27;;;;;;;3.20;1.83;;;8.30;68.40;;;;;;5011703;28;20239;-73
2021/12/16 14:01:26;;;;;;;3.88;2.38;;;8.30;69.30;;;;;;5067513;28;20190;-73
2021/12/16 14:04:06;;;;;;;3.50;2.50;;;8.20;69.20;;;;;;5090239;28;20189;-71
2021/12/16 14:06:37;;;;;;;3.33;2.30;;;8.10;70.30;;;;;;5088498;28;20213;-73
2021/12/16 14:09:16;;;;;;;4.90;2.95;;;8.00;70.90;;;;;;5091153;28;20219;-71
2021/12/16 14:15:08;;;;;;;6.88;2.78;;;7.90;71.70;;;;;;5091025;28;20694;-72
2021/12/16 14:17:46;;;;;;;4.70;2.80;;;7.80;72.20;;;;;;5089165;28;20221;-74
2021/12/16 14:23:23;;;;;;;3.95;2.60;;;7.70;72.20;;;;;;5080201;28;20204;-72
2021/12/16 14:40:15;;;;;;;5.20;2.90;;;7.10;73.70;;;;;;5090236;28;20247;-73
2021/12/16 14:42:59;;;;;;;5.15;2.72;;;6.90;73.80;;;;;;5090575;28;20212;-72
2021/12/16 14:45:38;;;;;;;4.70;2.53;;;6.80;74.60;;;;;;5089794;28;20189;-73
2021/12/16 14:48:27;;;;;;;3.60;2.30;;;6.70;75.00;;;;;;5090641;28;20189;-73
2021/12/16 14:50:58;;;;;;;2.83;2.38;;;6.60;75.70;;;;;;5087799;28;20217;-73
2021/12/16 14:53:38;;;;;;;3.28;2.15;;;6.40;76.00;;;;;;5090978;28;20272;-71
2021/12/16 14:56:09;;;;;;;4.00;2.88;;;6.40;76.80;;;;;;5078458;28;21457;-72
2021/12/16 14:58:39;;;;;;;3.83;2.97;;;6.30;76.40;;;;;;5076360;28;20315;-72
2021/12/16 15:01:15;;;;;;;3.42;2.65;;;6.30;76.80;;;;;;5090440;28;20291;-73
2021/12/16 15:03:43;;;;;;;4.50;2.85;;;6.30;77.10;;;;;;5090530;28;20284;-72
2021/12/16 15:06:16;;;;;;;6.68;4.47;;;6.20;77.50;;;;;;5089651;28;20247;-73
2021/12/16 15:08:50;;;;;;;8.38;5.22;;;6.10;78.40;;;;;;5090396;28;20213;-72
2021/12/16 15:11:27;;;;;;;13.40;8.45;;;6.10;79.00;;;;;;5090063;28;20189;-73
2021/12/16 15:13:58;;;;;;;18.52;10.98;;;6.10;79.40;;;;;;5086937;28;20185;-73
2021/12/16 15:17:13;;;;;;;14.95;9.00;;;6.00;79.70;;;;;;5090334;28;20628;-72
2021/12/16 15:37:09;;;;;;;20.85;14.82;;;5.80;80.60;;;;;;5015514;28;20310;-73
2021/12/16 15:39:50;;;;;;;22.90;15.18;;;5.80;80.50;;;;;;5089833;28;20232;-71
2021/12/16 15:45:11;;;;;;;11.10;7.88;;;5.60;80.40;;;;;;5089951;28;20312;-73
2021/12/16 15:47:45;;;;;;;11.40;7.18;;;5.60;80.60;;;;;;5089561;28;20182;-73
2021/12/16 15:50:30;;;;;;;9.00;6.57;;;5.50;81.00;;;;;;5085809;28;20597;-73
2021/12/16 15:52:59;;;;;;;7.22;6.20;;;5.40;81.30;;;;;;5089211;28;20272;-74
2021/12/16 15:55:31;;;;;;;8.80;5.90;;;5.30;81.30;;;;;;5089352;28;20193;-75
2021/12/16 15:58:12;;;;;;;7.07;4.95;;;5.20;81.10;;;;;;5089837;28;20213;-73
2021/12/16 16:00:48;;;;;;;9.10;6.50;;;5.20;81.30;;;;;;5086273;28;20193;-73
2021/12/16 16:03:18;;;;;;;8.05;5.53;;;5.10;81.70;;;;;;5089803;28;20189;-73
2021/12/16 16:05:56;;;;;;;6.03;4.50;;;5.00;82.30;;;;;;5082921;28;20640;-73
2021/12/16 16:08:26;;;;;;;8.20;5.20;;;5.00;83.10;;;;;;5072473;28;20277;-73
2021/12/16 16:11:11;;;;;;;9.20;6.40;;;4.90;83.50;;;;;;5078489;28;20648;-73
2021/12/16 16:13:43;;;;;;;9.27;6.97;;;4.90;84.30;;;;;;5084878;28;20177;-72